createdAt,value
2022-10-11T00:01:51.897Z,16.87
2022-10-11T00:04:19.330Z,16.88
2022-10-11T00:06:47.321Z,16.87
2022-10-11T00:09:15.955Z,16.84
2022-10-11T00:11:43.487Z,16.39
2022-10-11T00:14:12.254Z,16.83
2022-10-11T00:16:42.120Z,16.83
2022-10-11T00:19:09.538Z,16.80
2022-10-11T00:21:37.590Z,16.73
2022-10-11T00:24:05.785Z,16.81
2022-10-11T00:26:33.232Z,16.79
2022-10-11T00:29:00.687Z,16.40
2022-10-11T00:31:34.720Z,16.79
2022-10-11T00:34:03.030Z,16.76
2022-10-11T00:36:30.469Z,16.76
2022-10-11T00:38:57.890Z,16.78
2022-10-11T00:41:25.329Z,16.75
2022-10-11T00:44:09.011Z,16.73
2022-10-11T00:46:37.786Z,16.72
2022-10-11T00:49:06.742Z,16.49
2022-10-11T00:51:41.234Z,16.70
2022-10-11T00:54:08.897Z,16.68
2022-10-11T00:56:37.359Z,16.67
2022-10-11T00:59:06.867Z,16.66
2022-10-11T01:01:34.444Z,16.64
2022-10-11T01:04:03.483Z,16.42
2022-10-11T01:06:30.939Z,16.58
2022-10-11T01:08:58.379Z,16.63
2022-10-11T01:11:26.654Z,16.47
2022-10-11T01:14:09.203Z,16.61
2022-10-11T01:16:37.377Z,16.50
2022-10-11T01:19:11.286Z,16.57
2022-10-11T01:21:40.642Z,16.55
2022-10-11T01:24:33.903Z,16.57
2022-10-11T01:27:25.443Z,16.20
2022-10-11T01:29:57.010Z,16.54
2022-10-11T01:32:28.293Z,16.53
2022-10-11T01:34:56.983Z,16.51
2022-10-11T01:37:26.784Z,16.15
2022-10-11T01:39:57.002Z,16.27
2022-10-11T01:42:24.289Z,16.46
2022-10-11T01:44:51.747Z,16.41
2022-10-11T01:47:20.386Z,16.11
2022-10-11T01:49:55.463Z,16.45
2022-10-11T01:52:22.907Z,16.43
2022-10-11T01:55:09.230Z,16.22
2022-10-11T01:57:57.670Z,16.43
2022-10-11T02:00:25.823Z,16.41
2022-10-11T02:03:00.395Z,16.37
2022-10-11T02:05:31.052Z,16.38
2022-10-11T02:08:00.602Z,16.36
2022-10-11T02:10:31.566Z,16.33
2022-10-11T02:13:01.334Z,16.35
2022-10-11T02:15:29.458Z,16.32
2022-10-11T02:17:57.841Z,16.28
2022-10-11T02:20:26.220Z,16.03
2022-10-11T02:22:57.645Z,16.22
2022-10-11T02:25:25.927Z,16.26
2022-10-11T02:27:54.785Z,16.24
2022-10-11T02:30:22.268Z,16.20
2022-10-11T02:32:49.696Z,16.22
2022-10-11T02:35:17.149Z,16.23
2022-10-11T02:37:47.526Z,16.20
2022-10-11T02:40:17.350Z,16.21
2022-10-11T02:42:46.679Z,16.15
2022-10-11T02:45:15.706Z,16.03
2022-10-11T02:47:43.165Z,16.14
2022-10-11T02:50:11.750Z,16.13
2022-10-11T02:52:39.209Z,16.13
2022-10-11T02:55:07.787Z,16.09
2022-10-11T02:57:36.582Z,15.77
2022-10-11T03:00:04.506Z,16.09
2022-10-11T03:02:31.941Z,16.09
2022-10-11T03:04:59.697Z,16.07
2022-10-11T03:07:27.129Z,15.64
2022-10-11T03:09:54.572Z,16.05
2022-10-11T03:12:22.001Z,16.01
2022-10-11T03:14:50.771Z,16.02
2022-10-11T03:17:35.654Z,15.98
2022-10-11T03:20:04.704Z,15.98
2022-10-11T03:22:32.154Z,16.00
2022-10-11T03:25:03.595Z,15.98
2022-10-11T03:27:31.720Z,15.97
2022-10-11T03:30:00.586Z,15.95
2022-10-11T03:32:28.156Z,15.94
2022-10-11T03:34:55.593Z,15.97
2022-10-11T03:37:23.039Z,15.95
2022-10-11T03:39:50.525Z,15.92
2022-10-11T03:42:17.985Z,15.50
2022-10-11T03:44:45.431Z,15.88
2022-10-11T03:47:14.215Z,15.88
2022-10-11T03:49:43.799Z,15.80
2022-10-11T03:52:11.478Z,15.84
2022-10-11T03:54:39.082Z,15.61
2022-10-11T03:57:07.052Z,15.83
2022-10-11T03:59:34.480Z,15.84
2022-10-11T04:02:02.022Z,15.84
2022-10-11T04:04:30.842Z,15.82
2022-10-11T04:06:58.285Z,15.81
2022-10-11T04:09:25.724Z,15.79
2022-10-11T04:11:53.194Z,15.78
2022-10-11T04:14:20.636Z,15.77
2022-10-11T04:16:48.068Z,15.76
2022-10-11T04:19:15.514Z,15.74
2022-10-11T04:21:44.289Z,15.75
2022-10-11T04:24:11.975Z,15.74
2022-10-11T04:26:39.482Z,15.75
2022-10-11T04:29:06.933Z,15.73
2022-10-11T04:31:34.388Z,15.74
2022-10-11T04:34:01.979Z,15.73
2022-10-11T04:36:30.078Z,15.70
2022-10-11T04:38:58.829Z,15.65
2022-10-11T04:41:26.292Z,15.66
2022-10-11T04:43:53.745Z,15.67
2022-10-11T04:46:21.456Z,15.67
2022-10-11T04:48:48.905Z,15.65
2022-10-11T04:51:16.374Z,15.62
2022-10-11T04:53:43.810Z,15.65
2022-10-11T04:56:12.598Z,15.63
2022-10-11T04:58:41.326Z,15.25
2022-10-11T05:01:08.802Z,15.63
2022-10-11T05:03:36.422Z,15.62
2022-10-11T05:06:05.892Z,15.13
2022-10-11T05:08:33.853Z,15.63
2022-10-11T05:11:02.130Z,15.33
2022-10-11T05:13:31.061Z,15.65
2022-10-11T05:15:58.748Z,15.43
2022-10-11T05:18:26.265Z,15.68
2022-10-11T05:20:59.697Z,15.72
2022-10-11T05:23:27.169Z,15.71
2022-10-11T05:25:54.636Z,15.73
2022-10-11T05:28:22.107Z,15.74
2022-10-11T05:30:50.881Z,15.76
2022-10-11T05:33:18.322Z,15.75
2022-10-11T05:35:45.787Z,15.75
2022-10-11T05:38:13.264Z,15.75
2022-10-11T05:40:40.919Z,15.76
2022-10-11T05:43:08.467Z,15.42
2022-10-11T05:45:36.816Z,15.35
2022-10-11T05:48:05.919Z,15.75
2022-10-11T05:50:33.389Z,15.70
2022-10-11T05:53:00.888Z,15.55
2022-10-11T05:55:28.372Z,15.73
2022-10-11T05:57:55.972Z,15.69
2022-10-11T06:00:23.538Z,15.48
2022-10-11T06:02:50.994Z,15.66
2022-10-11T06:05:19.773Z,15.61
2022-10-11T06:07:47.233Z,15.62
2022-10-11T06:10:14.663Z,15.67
2022-10-11T06:12:42.122Z,15.30
2022-10-11T06:15:10.796Z,15.67
2022-10-11T06:17:38.284Z,15.60
2022-10-11T06:20:06.587Z,15.70
2022-10-11T06:22:35.376Z,15.78
2022-10-11T06:25:02.937Z,15.65
2022-10-11T06:27:30.384Z,15.76
2022-10-11T06:29:57.822Z,15.85
2022-10-11T06:32:25.279Z,15.83
2022-10-11T06:34:52.735Z,15.85
2022-10-11T06:37:20.412Z,15.71
2022-10-11T06:39:49.859Z,15.83
2022-10-11T06:42:17.430Z,15.66
2022-10-11T06:44:44.862Z,15.80
2022-10-11T06:47:12.295Z,15.80
2022-10-11T06:49:39.739Z,15.66
2022-10-11T06:52:07.197Z,15.43
2022-10-11T06:54:34.634Z,15.72
2022-10-11T06:57:03.409Z,15.77
2022-10-11T06:59:30.839Z,15.78
2022-10-11T07:01:58.283Z,15.81
2022-10-11T07:04:25.699Z,15.85
2022-10-11T07:06:53.255Z,15.84
2022-10-11T07:09:20.687Z,15.85
2022-10-11T07:11:48.829Z,15.87
2022-10-11T07:14:17.577Z,15.86
2022-10-11T07:16:45.012Z,15.91
2022-10-11T07:19:12.439Z,15.98
2022-10-11T07:21:39.894Z,16.03
2022-10-11T07:24:07.748Z,15.72
2022-10-11T07:26:38.650Z,15.97
2022-10-11T07:29:06.865Z,16.01
2022-10-11T07:31:38.845Z,16.24
2022-10-11T07:34:06.277Z,16.35
2022-10-11T07:36:33.714Z,16.55
2022-10-11T07:39:01.195Z,16.64
2022-10-11T07:41:28.655Z,16.49
2022-10-11T07:43:56.251Z,16.80
2022-10-11T07:46:23.772Z,16.82
2022-10-11T07:48:52.748Z,16.82
2022-10-11T07:51:21.251Z,16.86
2022-10-11T07:53:49.603Z,16.50
2022-10-11T07:56:18.379Z,16.97
2022-10-11T07:58:45.894Z,17.00
2022-10-11T08:01:14.425Z,17.05
2022-10-11T08:03:42.247Z,17.08
2022-10-11T08:06:12.385Z,17.08
2022-10-11T08:08:39.666Z,17.02
2022-10-11T08:11:07.439Z,16.60
2022-10-11T08:13:34.955Z,17.00
2022-10-11T08:16:02.790Z,17.00
2022-10-11T08:18:30.974Z,16.99
2022-10-11T08:20:58.438Z,17.01
2022-10-11T08:23:27.254Z,17.01
2022-10-11T08:25:57.282Z,17.00
2022-10-11T08:28:24.761Z,16.97
2022-10-11T08:30:54.723Z,16.92
2022-10-11T08:33:22.595Z,16.90
2022-10-11T08:35:50.293Z,16.90
2022-10-11T08:38:17.893Z,16.91
2022-10-11T08:40:50.630Z,16.95
2022-10-11T08:43:25.865Z,16.98
2022-10-11T08:45:54.425Z,16.98
2022-10-11T08:48:32.957Z,16.74
2022-10-11T08:51:00.400Z,17.10
2022-10-11T08:53:29.303Z,17.03
2022-10-11T08:55:58.104Z,16.93
2022-10-11T08:58:31.585Z,16.74
2022-10-11T09:00:59.047Z,17.20
2022-10-11T09:03:30.635Z,16.94
2022-10-11T09:06:04.405Z,16.85
2022-10-11T09:08:36.318Z,17.33
2022-10-11T09:11:07.481Z,17.26
2022-10-11T09:13:43.710Z,17.20
2022-10-11T09:16:16.022Z,17.20
2022-10-11T09:18:49.872Z,17.18
2022-10-11T09:21:21.379Z,17.40
2022-10-11T09:24:04.209Z,17.35
2022-10-11T09:26:35.773Z,17.53
2022-10-11T09:29:06.867Z,17.27
2022-10-11T09:31:34.632Z,17.70
2022-10-11T09:34:06.584Z,17.75
2022-10-11T09:36:37.071Z,17.76
2022-10-11T09:39:08.214Z,17.91
2022-10-11T09:41:39.685Z,17.71
2022-10-11T09:44:07.222Z,17.98
2022-10-11T09:46:37.108Z,18.02
2022-10-11T09:49:05.087Z,17.67
2022-10-11T09:51:32.610Z,17.89
2022-10-11T09:54:00.806Z,17.71
2022-10-11T09:56:28.959Z,18.07
2022-10-11T09:59:19.326Z,18.09
2022-10-11T10:01:46.807Z,18.28
2022-10-11T10:04:16.808Z,18.37
2022-10-11T10:06:44.256Z,18.57
2022-10-11T10:11:30.860Z,18.69
2022-10-11T10:13:58.300Z,18.75
2022-10-11T10:16:29.410Z,18.51
2022-10-11T10:18:57.738Z,18.90
2022-10-11T10:21:28.097Z,18.95
2022-10-11T10:23:55.662Z,18.98
2022-10-11T10:26:23.886Z,19.02
2022-10-11T10:28:59.601Z,19.03
2022-10-11T10:31:40.181Z,18.90
2022-10-11T10:34:17.682Z,18.96
2022-10-11T10:36:46.810Z,18.85
2022-10-11T10:39:16.554Z,18.95
2022-10-11T10:41:44.015Z,18.98
2022-10-11T10:44:11.454Z,18.96
2022-10-11T10:46:49.788Z,18.91
2022-10-11T10:49:53.067Z,18.91
2022-10-11T10:52:21.298Z,18.88
2022-10-11T10:54:51.680Z,18.87
2022-10-11T10:57:21.365Z,18.87
2022-10-11T10:59:55.559Z,18.86
2022-10-11T11:02:40.302Z,18.86
2022-10-11T11:05:18.697Z,18.87
2022-10-11T11:07:47.922Z,18.73
2022-10-11T11:10:17.446Z,18.77
2022-10-11T11:12:46.911Z,18.42
2022-10-11T11:15:16.653Z,18.25
2022-10-11T11:17:52.606Z,18.09
2022-10-11T11:20:28.784Z,18.45
2022-10-11T11:22:59.344Z,18.35
2022-10-11T11:25:31.755Z,18.10
2022-10-11T11:28:09.273Z,17.99
2022-10-11T11:30:40.944Z,17.92
2022-10-11T11:33:13.124Z,17.79
2022-10-11T11:35:42.628Z,17.13
2022-10-11T11:38:12.482Z,17.56
2022-10-11T11:40:40.575Z,17.64
2022-10-11T11:43:08.813Z,17.48
2022-10-11T11:45:42.498Z,17.88
2022-10-11T11:48:14.955Z,18.00
2022-10-11T11:50:44.892Z,18.10
2022-10-11T11:53:14.672Z,18.13
2022-10-11T11:55:44.293Z,18.10
2022-10-11T11:58:25.828Z,18.24
2022-10-11T12:00:56.446Z,18.29
2022-10-11T12:03:27.702Z,18.31
2022-10-11T12:06:20.781Z,18.34
2022-10-11T12:08:49.062Z,18.35
2022-10-11T12:11:20.417Z,18.39
2022-10-11T12:13:47.971Z,18.40
2022-10-11T12:16:16.204Z,18.39
2022-10-11T12:18:53.273Z,18.47
2022-10-11T12:21:23.235Z,18.48
2022-10-11T12:23:51.343Z,18.09
2022-10-11T12:26:39.446Z,18.28
2022-10-11T12:29:42.467Z,18.52
2022-10-11T12:32:49.731Z,18.53
2022-10-11T12:36:05.597Z,18.53
2022-10-11T12:38:39.591Z,18.52
2022-10-11T12:41:41.125Z,18.53
2022-10-11T12:44:08.940Z,17.98
2022-10-11T12:46:41.327Z,18.53
2022-10-11T12:49:22.206Z,18.33
2022-10-11T12:51:53.709Z,18.29
2022-10-11T12:54:45.066Z,18.26
2022-10-11T12:57:49.861Z,18.22
2022-10-11T13:00:20.567Z,18.28
2022-10-11T13:02:48.251Z,18.40
2022-10-11T13:05:22.050Z,18.46
2022-10-11T13:07:49.781Z,18.37
2022-10-11T13:10:20.950Z,18.72
2022-10-11T13:12:48.506Z,18.57
2022-10-11T13:15:16.599Z,18.87
2022-10-11T13:17:44.060Z,18.80
2022-10-11T13:20:17.926Z,18.97
2022-10-11T13:22:45.943Z,19.01
2022-10-11T13:25:16.297Z,18.31
2022-10-11T13:27:45.138Z,18.55
2022-10-11T13:30:17.157Z,18.49
2022-10-11T13:32:44.605Z,18.46
2022-10-11T13:35:19.782Z,18.37
2022-10-11T13:37:49.887Z,18.27
2022-10-11T13:40:18.274Z,18.19
2022-10-11T13:42:48.413Z,18.80
2022-10-11T13:45:16.314Z,18.92
2022-10-11T13:47:43.746Z,19.02
2022-10-11T13:50:19.413Z,19.11
2022-10-11T13:52:55.286Z,19.19
2022-10-11T13:55:33.445Z,19.28
2022-10-11T13:58:03.396Z,19.35
2022-10-11T14:00:33.085Z,19.16
2022-10-11T14:03:02.025Z,19.45
2022-10-11T14:05:31.992Z,19.50
2022-10-11T14:08:00.716Z,19.57
2022-10-11T14:10:28.161Z,19.57
2022-10-11T14:13:00.348Z,19.64
2022-10-11T14:15:30.785Z,19.55
2022-10-11T14:17:58.536Z,19.69
2022-10-11T14:20:33.216Z,19.73
2022-10-11T14:23:00.868Z,19.78
2022-10-11T14:25:28.314Z,19.86
2022-10-11T14:27:55.765Z,19.90
2022-10-11T14:30:26.246Z,19.93
2022-10-11T14:32:58.554Z,19.99
2022-10-11T14:35:26.975Z,20.05
2022-10-11T14:37:54.590Z,20.07
2022-10-11T14:40:23.207Z,19.75
2022-10-11T14:42:50.813Z,19.90
2022-10-11T14:45:18.608Z,20.11
2022-10-11T14:47:46.099Z,20.13
2022-10-11T14:50:29.076Z,19.90
2022-10-11T14:52:56.788Z,20.22
2022-10-11T14:55:24.401Z,20.06
2022-10-11T14:57:51.850Z,20.28
2022-10-11T15:00:20.872Z,20.26
2022-10-11T15:02:48.310Z,20.28
2022-10-11T15:05:15.822Z,20.29
2022-10-11T15:07:44.576Z,20.33
2022-10-11T15:10:17.980Z,20.35
2022-10-11T15:12:45.433Z,20.35
2022-10-11T15:15:19.351Z,20.39
2022-10-11T15:17:48.073Z,19.96
2022-10-11T15:20:19.843Z,20.23
2022-10-11T15:22:48.809Z,20.43
2022-10-11T15:25:16.453Z,20.45
2022-10-11T15:27:44.189Z,20.49
2022-10-11T15:30:18.524Z,20.49
2022-10-11T15:32:46.049Z,20.51
2022-10-11T15:35:13.580Z,20.49
2022-10-11T15:37:41.071Z,20.09
2022-10-11T15:40:21.079Z,20.46
2022-10-11T15:42:48.540Z,20.44
2022-10-11T15:45:16.016Z,20.06
2022-10-11T15:47:43.485Z,20.39
2022-10-11T15:50:18.778Z,19.96
2022-10-11T15:52:46.254Z,20.21
2022-10-11T15:55:13.690Z,20.22
2022-10-11T15:57:42.456Z,20.17
2022-10-11T16:00:10.818Z,19.62
2022-10-11T16:02:38.244Z,20.00
2022-10-11T16:05:06.398Z,20.00
2022-10-11T16:07:33.874Z,19.94
2022-10-11T16:10:01.303Z,19.90
2022-10-11T16:12:28.765Z,19.87
2022-10-11T16:15:00.665Z,19.85
2022-10-11T16:17:28.122Z,19.80
2022-10-11T16:19:57.350Z,19.80
2022-10-11T16:22:24.795Z,19.78
2022-10-11T16:24:52.226Z,19.74
2022-10-11T16:27:19.766Z,19.70
2022-10-11T16:29:47.228Z,19.67
2022-10-11T16:32:15.966Z,19.60
2022-10-11T16:34:43.412Z,19.59
2022-10-11T16:37:10.835Z,19.50
2022-10-11T16:39:38.285Z,19.50
2022-10-11T16:42:05.790Z,19.46
2022-10-11T16:44:33.440Z,19.42
2022-10-11T16:47:01.335Z,19.36
2022-10-11T16:49:30.106Z,19.35
2022-10-11T16:51:59.070Z,18.97
2022-10-11T16:54:27.971Z,18.92
2022-10-11T16:56:55.405Z,19.23
2022-10-11T16:59:22.844Z,19.23
2022-10-11T17:01:50.379Z,19.18
2022-10-11T17:04:17.822Z,19.15
2022-10-11T17:06:46.608Z,19.10
2022-10-11T17:09:14.431Z,19.08
2022-10-11T17:11:41.921Z,19.06
2022-10-11T17:14:09.444Z,19.02
2022-10-11T17:16:36.869Z,19.00
2022-10-11T17:19:04.342Z,18.98
2022-10-11T17:21:31.807Z,18.94
2022-10-11T17:24:00.582Z,18.92
2022-10-11T17:26:28.039Z,18.88
2022-10-11T17:28:55.704Z,18.38
2022-10-11T17:31:23.315Z,18.50
2022-10-11T17:33:50.824Z,18.81
2022-10-11T17:36:21.717Z,18.80
2022-10-11T17:38:49.219Z,18.78
2022-10-11T17:41:18.000Z,18.76
2022-10-11T17:43:45.427Z,18.73
2022-10-11T17:46:13.308Z,18.40
2022-10-11T17:48:40.821Z,18.65
2022-10-11T17:51:09.323Z,18.39
2022-10-11T17:53:36.980Z,18.63
2022-10-11T17:56:05.936Z,18.17
2022-10-11T17:58:34.757Z,18.60
2022-10-11T18:01:03.637Z,18.58
2022-10-11T18:03:31.497Z,18.56
2022-10-11T18:05:58.971Z,18.53
2022-10-11T18:08:26.421Z,18.46
2022-10-11T18:10:53.871Z,18.48
2022-10-11T18:13:21.293Z,18.45
2022-10-11T18:15:53.484Z,18.44
2022-10-11T18:18:21.143Z,18.42
2022-10-11T18:20:48.771Z,18.37
2022-10-11T18:23:17.627Z,18.38
2022-10-11T18:25:45.068Z,18.37
2022-10-11T18:28:12.725Z,18.34
2022-10-11T18:30:42.600Z,18.34
2022-10-11T18:33:11.374Z,18.30
2022-10-11T18:35:38.788Z,18.28
2022-10-11T18:38:06.392Z,18.27
2022-10-11T18:40:36.757Z,18.24
2022-10-11T18:43:04.275Z,18.22
2022-10-11T18:45:31.778Z,18.19
2022-10-11T18:47:59.214Z,18.17
2022-10-11T18:50:28.023Z,18.14
2022-10-11T18:52:55.512Z,18.14
2022-10-11T18:55:22.956Z,18.12
2022-10-11T18:57:50.516Z,18.10
2022-10-11T19:00:39.488Z,18.09
2022-10-11T19:03:05.729Z,18.06
2022-10-11T19:05:34.481Z,18.05
2022-10-11T19:08:01.913Z,18.03
2022-10-11T19:10:29.374Z,18.01
2022-10-11T19:12:56.822Z,17.99
2022-10-11T19:15:28.606Z,17.97
2022-10-11T19:17:56.406Z,17.98
2022-10-11T19:20:23.831Z,17.96
2022-10-11T19:22:52.729Z,17.93
2022-10-11T19:25:20.172Z,17.91
2022-10-11T19:27:47.614Z,17.86
2022-10-11T19:30:15.123Z,17.88
2022-10-11T19:32:42.553Z,17.84
2022-10-11T19:35:10.800Z,17.86
2022-10-11T19:37:38.244Z,17.84
2022-10-11T19:40:08.676Z,17.83
2022-10-11T19:42:36.118Z,17.81
2022-10-11T19:45:03.705Z,17.79
2022-10-11T19:47:31.545Z,17.77
2022-10-11T19:49:59.125Z,17.75
2022-10-11T19:52:26.666Z,17.74
2022-10-11T19:54:54.080Z,17.73
2022-10-11T19:57:22.865Z,17.73
2022-10-11T19:59:50.365Z,17.71
2022-10-11T20:02:17.818Z,17.68
2022-10-11T20:04:52.451Z,17.44
2022-10-11T20:07:20.585Z,17.66
2022-10-11T20:09:48.007Z,17.61
2022-10-11T20:12:15.456Z,17.64
2022-10-11T20:14:44.202Z,17.60
2022-10-11T20:17:11.639Z,17.61
2022-10-11T20:19:39.101Z,17.60
2022-10-11T20:22:06.600Z,17.61
2022-10-11T20:24:34.544Z,17.60
2022-10-11T20:27:03.322Z,17.54
2022-10-11T20:29:30.762Z,17.56
2022-10-11T20:31:59.732Z,17.55
2022-10-11T20:34:28.096Z,17.56
2022-10-11T20:36:55.578Z,17.38
2022-10-11T20:39:23.573Z,17.52
2022-10-11T20:41:51.056Z,17.51
2022-10-11T20:44:18.490Z,17.51
2022-10-11T20:46:45.910Z,17.49
2022-10-11T20:49:14.661Z,17.47
2022-10-11T20:51:42.510Z,16.77
2022-10-11T20:54:10.049Z,17.23
2022-10-11T20:56:37.538Z,17.38
2022-10-11T20:59:05.001Z,17.42
2022-10-11T21:01:33.240Z,17.40
2022-10-11T21:04:01.164Z,17.38
2022-10-11T21:06:30.300Z,17.37
2022-10-11T21:08:58.758Z,17.15
2022-10-11T21:11:26.475Z,17.35
2022-10-11T21:13:55.424Z,17.34
2022-10-11T21:16:22.883Z,17.33
2022-10-11T21:18:51.594Z,16.82
2022-10-11T21:21:19.020Z,17.31
2022-10-11T21:23:47.787Z,17.28
2022-10-11T21:26:16.651Z,17.11
2022-10-11T21:28:45.118Z,17.21
2022-10-11T21:31:13.564Z,17.23
2022-10-11T21:33:41.205Z,17.20
2022-10-11T21:36:09.790Z,17.20
2022-10-11T21:38:37.360Z,17.17
2022-10-11T21:41:06.285Z,17.13
2022-10-11T21:43:35.016Z,17.14
2022-10-11T21:46:09.260Z,17.13
2022-10-11T21:48:36.689Z,17.11
2022-10-11T21:51:04.191Z,16.96
2022-10-11T21:53:31.701Z,16.56
2022-10-11T21:55:59.139Z,16.98
2022-10-11T21:58:27.897Z,17.02
2022-10-11T22:00:55.460Z,17.02
2022-10-11T22:03:22.942Z,17.00
2022-10-11T22:05:50.371Z,16.95
2022-10-11T22:08:17.807Z,17.01
2022-10-11T22:10:45.470Z,16.61
2022-10-11T22:13:12.943Z,16.92
2022-10-11T22:15:41.889Z,16.89
2022-10-11T22:18:09.553Z,16.86
2022-10-11T22:20:37.137Z,16.87
2022-10-11T22:23:04.758Z,16.61
2022-10-11T22:25:32.382Z,16.80
2022-10-11T22:28:00.011Z,16.77
2022-10-11T22:30:27.484Z,16.74
2022-10-11T22:32:56.512Z,16.72
2022-10-11T22:35:24.047Z,16.41
2022-10-11T22:37:51.519Z,16.66
2022-10-11T22:40:19.147Z,16.61
2022-10-11T22:42:46.691Z,16.66
2022-10-11T22:45:14.166Z,16.16
2022-10-11T22:47:41.636Z,16.64
2022-10-11T22:50:10.679Z,16.08
2022-10-11T22:52:38.218Z,16.61
2022-10-11T22:55:06.358Z,16.58
2022-10-11T22:57:34.120Z,16.59
2022-10-11T23:00:01.782Z,16.58
2022-10-11T23:02:29.252Z,16.56
2022-10-11T23:04:58.238Z,16.56
2022-10-11T23:07:27.021Z,16.53
2022-10-11T23:09:54.530Z,16.51
2022-10-11T23:12:22.077Z,16.51
2022-10-11T23:14:49.544Z,16.47
2022-10-11T23:17:16.991Z,16.46
2022-10-11T23:19:44.453Z,16.46
2022-10-11T23:22:11.954Z,16.47
2022-10-11T23:24:40.730Z,16.46
2022-10-11T23:27:08.223Z,16.45
2022-10-11T23:29:35.712Z,15.78
2022-10-11T23:32:03.163Z,16.42
2022-10-11T23:34:30.646Z,16.40
2022-10-11T23:36:58.109Z,16.30
2022-10-11T23:39:25.558Z,16.37
2022-10-11T23:41:54.321Z,16.35
2022-10-11T23:44:21.815Z,16.33
2022-10-11T23:46:49.254Z,16.31
2022-10-11T23:49:16.717Z,16.32
2022-10-11T23:51:44.182Z,16.25
2022-10-11T23:54:11.861Z,16.28
2022-10-11T23:56:39.314Z,16.26
2022-10-11T23:59:08.099Z,16.25
